sensor_id;sensor_type;location;lat;lon;timestamp;temperature;humidity
17687;DHT22;8962;52.538;13.266;2022-12-08T00:01:07;1.20;99.90
17687;DHT22;8962;52.538;13.266;2022-12-08T00:03:36;1.20;99.90
17687;DHT22;8962;52.538;13.266;2022-12-08T00:06:07;1.20;99.90
17687;DHT22;8962;52.538;13.266;2022-12-08T00:08:56;1.20;99.90
17687;DHT22;8962;52.538;13.266;2022-12-08T00:11:40;1.20;99.90
17687;DHT22;8962;52.538;13.266;2022-12-08T00:14:08;1.30;99.90
17687;DHT22;8962;52.538;13.266;2022-12-08T00:16:35;1.30;99.90
17687;DHT22;8962;52.538;13.266;2022-12-08T00:19:02;1.40;99.90
17687;DHT22;8962;52.538;13.266;2022-12-08T00:21:31;1.50;99.90
17687;DHT22;8962;52.538;13.266;2022-12-08T00:23:58;1.40;99.90
17687;DHT22;8962;52.538;13.266;2022-12-08T00:26:25;1.40;99.90
17687;DHT22;8962;52.538;13.266;2022-12-08T00:28:53;1.40;99.90
17687;DHT22;8962;52.538;13.266;2022-12-08T00:31:20;1.40;99.90
17687;DHT22;8962;52.538;13.266;2022-12-08T00:33:47;1.50;99.90
17687;DHT22;8962;52.538;13.266;2022-12-08T00:36:14;1.50;99.90
17687;DHT22;8962;52.538;13.266;2022-12-08T00:38:43;1.60;99.90
17687;DHT22;8962;52.538;13.266;2022-12-08T00:41:14;1.60;99.90
17687;DHT22;8962;52.538;13.266;2022-12-08T00:43:42;1.60;99.90
17687;DHT22;8962;52.538;13.266;2022-12-08T00:46:10;1.50;99.90
17687;DHT22;8962;52.538;13.266;2022-12-08T00:48:38;1.70;99.90
17687;DHT22;8962;52.538;13.266;2022-12-08T00:51:05;1.70;99.90
17687;DHT22;8962;52.538;13.266;2022-12-08T00:53:32;1.70;99.90
17687;DHT22;8962;52.538;13.266;2022-12-08T00:56:02;1.80;99.90
17687;DHT22;8962;52.538;13.266;2022-12-08T00:58:29;1.80;99.90
17687;DHT22;8962;52.538;13.266;2022-12-08T01:00:57;1.70;99.90
17687;DHT22;8962;52.538;13.266;2022-12-08T01:03:24;1.70;99.90
17687;DHT22;8962;52.538;13.266;2022-12-08T01:05:52;1.70;99.90
17687;DHT22;8962;52.538;13.266;2022-12-08T01:08:20;1.70;99.90
17687;DHT22;8962;52.538;13.266;2022-12-08T01:10:47;1.70;99.90
17687;DHT22;8962;52.538;13.266;2022-12-08T01:13:16;1.70;99.90
17687;DHT22;8962;52.538;13.266;2022-12-08T01:15:43;1.70;99.90
17687;DHT22;8962;52.538;13.266;2022-12-08T01:18:10;1.70;99.90
17687;DHT22;8962;52.538;13.266;2022-12-08T01:20:37;1.80;99.90
17687;DHT22;8962;52.538;13.266;2022-12-08T01:23:05;1.80;99.90
17687;DHT22;8962;52.538;13.266;2022-12-08T01:25:33;1.80;99.90
17687;DHT22;8962;52.538;13.266;2022-12-08T01:28:01;1.80;99.90
17687;DHT22;8962;52.538;13.266;2022-12-08T01:30:30;1.80;99.90
17687;DHT22;8962;52.538;13.266;2022-12-08T01:32:58;1.90;99.90
17687;DHT22;8962;52.538;13.266;2022-12-08T01:35:26;1.80;99.90
17687;DHT22;8962;52.538;13.266;2022-12-08T01:37:53;1.80;99.90
17687;DHT22;8962;52.538;13.266;2022-12-08T01:40:20;1.80;99.90
17687;DHT22;8962;52.538;13.266;2022-12-08T01:42:48;1.80;99.90
17687;DHT22;8962;52.538;13.266;2022-12-08T01:45:21;1.80;99.90
17687;DHT22;8962;52.538;13.266;2022-12-08T01:47:54;1.80;99.90
17687;DHT22;8962;52.538;13.266;2022-12-08T01:50:24;1.70;99.90
17687;DHT22;8962;52.538;13.266;2022-12-08T01:52:55;1.80;99.90
17687;DHT22;8962;52.538;13.266;2022-12-08T01:55:27;1.70;99.90
17687;DHT22;8962;52.538;13.266;2022-12-08T01:57:57;1.70;99.90
17687;DHT22;8962;52.538;13.266;2022-12-08T02:00:26;1.80;99.90
17687;DHT22;8962;52.538;13.266;2022-12-08T02:02:58;1.70;99.90
17687;DHT22;8962;52.538;13.266;2022-12-08T02:05:30;1.70;99.90
17687;DHT22;8962;52.538;13.266;2022-12-08T02:07:59;1.70;99.90
17687;DHT22;8962;52.538;13.266;2022-12-08T02:10:30;1.70;99.90
17687;DHT22;8962;52.538;13.266;2022-12-08T02:12:59;1.70;99.90
17687;DHT22;8962;52.538;13.266;2022-12-08T02:15:34;1.70;99.90
17687;DHT22;8962;52.538;13.266;2022-12-08T02:18:15;1.70;99.90
17687;DHT22;8962;52.538;13.266;2022-12-08T02:20:54;1.70;99.90
17687;DHT22;8962;52.538;13.266;2022-12-08T02:23:29;1.70;99.90
17687;DHT22;8962;52.538;13.266;2022-12-08T02:26:23;1.70;99.90
17687;DHT22;8962;52.538;13.266;2022-12-08T02:29:11;1.70;99.90
17687;DHT22;8962;52.538;13.266;2022-12-08T02:31:50;1.70;99.90
17687;DHT22;8962;52.538;13.266;2022-12-08T02:34:28;1.70;99.90
17687;DHT22;8962;52.538;13.266;2022-12-08T02:37:04;1.70;99.90
17687;DHT22;8962;52.538;13.266;2022-12-08T02:39:40;1.70;99.90
17687;DHT22;8962;52.538;13.266;2022-12-08T02:42:19;1.70;99.90
17687;DHT22;8962;52.538;13.266;2022-12-08T02:44:53;1.70;99.90
17687;DHT22;8962;52.538;13.266;2022-12-08T02:47:24;1.80;99.90
17687;DHT22;8962;52.538;13.266;2022-12-08T02:49:55;1.80;99.90
17687;DHT22;8962;52.538;13.266;2022-12-08T02:52:40;1.80;99.90
17687;DHT22;8962;52.538;13.266;2022-12-08T02:55:13;1.80;99.90
17687;DHT22;8962;52.538;13.266;2022-12-08T02:57:52;1.80;99.90
17687;DHT22;8962;52.538;13.266;2022-12-08T03:00:21;1.80;99.90
17687;DHT22;8962;52.538;13.266;2022-12-08T03:02:59;1.90;99.90
17687;DHT22;8962;52.538;13.266;2022-12-08T03:05:46;1.90;99.90
17687;DHT22;8962;52.538;13.266;2022-12-08T03:08:19;1.90;99.90
17687;DHT22;8962;52.538;13.266;2022-12-08T03:10:52;1.90;99.90
17687;DHT22;8962;52.538;13.266;2022-12-08T03:13:24;1.90;99.90
17687;DHT22;8962;52.538;13.266;2022-12-08T03:15:53;1.90;99.90
17687;DHT22;8962;52.538;13.266;2022-12-08T03:18:25;1.90;99.90
17687;DHT22;8962;52.538;13.266;2022-12-08T03:20:55;1.90;99.90
17687;DHT22;8962;52.538;13.266;2022-12-08T03:23:23;1.90;99.90
17687;DHT22;8962;52.538;13.266;2022-12-08T03:25:56;1.90;99.90
17687;DHT22;8962;52.538;13.266;2022-12-08T03:28:25;1.80;99.90
17687;DHT22;8962;52.538;13.266;2022-12-08T03:30:56;1.80;99.90
17687;DHT22;8962;52.538;13.266;2022-12-08T03:33:29;1.80;99.90
17687;DHT22;8962;52.538;13.266;2022-12-08T03:35:59;1.80;99.90
17687;DHT22;8962;52.538;13.266;2022-12-08T03:38:36;1.80;99.90
17687;DHT22;8962;52.538;13.266;2022-12-08T03:41:03;1.90;99.90
17687;DHT22;8962;52.538;13.266;2022-12-08T03:43:46;1.80;99.90
17687;DHT22;8962;52.538;13.266;2022-12-08T03:46:14;1.90;99.90
17687;DHT22;8962;52.538;13.266;2022-12-08T03:48:42;1.90;99.90
17687;DHT22;8962;52.538;13.266;2022-12-08T03:51:12;1.90;99.90
17687;DHT22;8962;52.538;13.266;2022-12-08T03:53:39;2.00;99.90
17687;DHT22;8962;52.538;13.266;2022-12-08T03:56:14;1.90;99.90
17687;DHT22;8962;52.538;13.266;2022-12-08T03:58:42;1.90;99.90
17687;DHT22;8962;52.538;13.266;2022-12-08T04:01:10;1.90;99.90
17687;DHT22;8962;52.538;13.266;2022-12-08T04:03:39;1.90;99.90
17687;DHT22;8962;52.538;13.266;2022-12-08T04:06:06;2.00;99.90
17687;DHT22;8962;52.538;13.266;2022-12-08T04:08:36;2.00;99.90
17687;DHT22;8962;52.538;13.266;2022-12-08T04:11:03;2.00;99.90
17687;DHT22;8962;52.538;13.266;2022-12-08T04:13:34;2.00;99.90
17687;DHT22;8962;52.538;13.266;2022-12-08T04:16:02;2.00;99.90
17687;DHT22;8962;52.538;13.266;2022-12-08T04:18:29;2.00;99.90
17687;DHT22;8962;52.538;13.266;2022-12-08T04:20:57;2.00;99.90
17687;DHT22;8962;52.538;13.266;2022-12-08T04:23:24;2.00;99.90
17687;DHT22;8962;52.538;13.266;2022-12-08T04:25:53;1.90;99.90
17687;DHT22;8962;52.538;13.266;2022-12-08T04:28:21;1.80;99.90
17687;DHT22;8962;52.538;13.266;2022-12-08T04:30:48;1.80;99.90
17687;DHT22;8962;52.538;13.266;2022-12-08T04:33:16;1.80;99.90
17687;DHT22;8962;52.538;13.266;2022-12-08T04:35:43;1.80;99.90
17687;DHT22;8962;52.538;13.266;2022-12-08T04:38:10;1.90;99.90
17687;DHT22;8962;52.538;13.266;2022-12-08T04:40:37;1.90;99.90
17687;DHT22;8962;52.538;13.266;2022-12-08T04:43:06;1.90;99.90
17687;DHT22;8962;52.538;13.266;2022-12-08T04:45:34;1.90;99.90
17687;DHT22;8962;52.538;13.266;2022-12-08T04:48:01;2.00;99.90
17687;DHT22;8962;52.538;13.266;2022-12-08T04:50:29;1.90;99.90
17687;DHT22;8962;52.538;13.266;2022-12-08T04:52:56;1.90;99.90
17687;DHT22;8962;52.538;13.266;2022-12-08T04:55:23;2.00;99.90
17687;DHT22;8962;52.538;13.266;2022-12-08T04:57:50;2.00;99.90
17687;DHT22;8962;52.538;13.266;2022-12-08T05:00:20;2.10;99.90
17687;DHT22;8962;52.538;13.266;2022-12-08T05:02:47;2.00;99.90
17687;DHT22;8962;52.538;13.266;2022-12-08T05:05:14;2.00;99.90
17687;DHT22;8962;52.538;13.266;2022-12-08T05:07:41;2.10;99.90
17687;DHT22;8962;52.538;13.266;2022-12-08T05:10:08;2.10;99.90
17687;DHT22;8962;52.538;13.266;2022-12-08T05:12:36;2.10;99.90
17687;DHT22;8962;52.538;13.266;2022-12-08T05:15:04;2.10;99.90
17687;DHT22;8962;52.538;13.266;2022-12-08T05:17:34;2.10;99.90
17687;DHT22;8962;52.538;13.266;2022-12-08T05:20:01;2.20;99.90
17687;DHT22;8962;52.538;13.266;2022-12-08T05:22:28;2.30;99.90
17687;DHT22;8962;52.538;13.266;2022-12-08T05:24:55;2.30;99.90
17687;DHT22;8962;52.538;13.266;2022-12-08T05:27:22;2.30;99.90
17687;DHT22;8962;52.538;13.266;2022-12-08T05:29:49;2.30;99.90
17687;DHT22;8962;52.538;13.266;2022-12-08T05:32:17;2.30;99.90
17687;DHT22;8962;52.538;13.266;2022-12-08T05:34:45;2.30;99.90
17687;DHT22;8962;52.538;13.266;2022-12-08T05:37:13;2.30;99.90
17687;DHT22;8962;52.538;13.266;2022-12-08T05:39:41;2.30;99.90
17687;DHT22;8962;52.538;13.266;2022-12-08T05:42:08;2.30;99.90
17687;DHT22;8962;52.538;13.266;2022-12-08T05:44:36;2.30;99.90
17687;DHT22;8962;52.538;13.266;2022-12-08T05:47:04;2.40;99.90
17687;DHT22;8962;52.538;13.266;2022-12-08T05:49:31;2.40;99.90
17687;DHT22;8962;52.538;13.266;2022-12-08T05:52:00;2.50;99.90
17687;DHT22;8962;52.538;13.266;2022-12-08T05:54:27;2.50;99.90
17687;DHT22;8962;52.538;13.266;2022-12-08T05:56:54;2.50;99.90
17687;DHT22;8962;52.538;13.266;2022-12-08T05:59:22;2.50;99.90
17687;DHT22;8962;52.538;13.266;2022-12-08T06:01:49;2.60;99.90
17687;DHT22;8962;52.538;13.266;2022-12-08T06:04:16;2.50;99.90
17687;DHT22;8962;52.538;13.266;2022-12-08T06:06:43;2.50;99.90
17687;DHT22;8962;52.538;13.266;2022-12-08T06:09:12;2.50;99.90
17687;DHT22;8962;52.538;13.266;2022-12-08T06:11:39;2.50;99.90
17687;DHT22;8962;52.538;13.266;2022-12-08T06:14:10;2.50;99.90
17687;DHT22;8962;52.538;13.266;2022-12-08T06:16:37;2.60;99.90
17687;DHT22;8962;52.538;13.266;2022-12-08T06:19:05;2.50;99.90
17687;DHT22;8962;52.538;13.266;2022-12-08T06:21:32;2.60;99.90
17687;DHT22;8962;52.538;13.266;2022-12-08T06:23:59;2.60;99.90
17687;DHT22;8962;52.538;13.266;2022-12-08T06:26:28;2.60;99.90
17687;DHT22;8962;52.538;13.266;2022-12-08T06:28:55;2.60;99.90
17687;DHT22;8962;52.538;13.266;2022-12-08T06:31:25;2.70;99.90
17687;DHT22;8962;52.538;13.266;2022-12-08T06:33:53;2.90;99.90
17687;DHT22;8962;52.538;13.266;2022-12-08T06:36:23;2.90;99.90
17687;DHT22;8962;52.538;13.266;2022-12-08T06:38:50;2.80;99.90
17687;DHT22;8962;52.538;13.266;2022-12-08T06:41:18;2.70;99.90
17687;DHT22;8962;52.538;13.266;2022-12-08T06:43:46;2.70;99.90
17687;DHT22;8962;52.538;13.266;2022-12-08T06:46:15;2.80;99.90
17687;DHT22;8962;52.538;13.266;2022-12-08T06:48:42;2.70;99.90
17687;DHT22;8962;52.538;13.266;2022-12-08T06:51:13;2.70;99.90
17687;DHT22;8962;52.538;13.266;2022-12-08T06:53:42;2.80;99.90
17687;DHT22;8962;52.538;13.266;2022-12-08T06:56:10;2.80;99.90
17687;DHT22;8962;52.538;13.266;2022-12-08T06:58:38;2.90;99.90
17687;DHT22;8962;52.538;13.266;2022-12-08T07:01:09;2.90;99.90
17687;DHT22;8962;52.538;13.266;2022-12-08T07:03:38;3.00;99.90
17687;DHT22;8962;52.538;13.266;2022-12-08T07:06:13;3.00;99.90
17687;DHT22;8962;52.538;13.266;2022-12-08T07:08:41;3.00;99.90
17687;DHT22;8962;52.538;13.266;2022-12-08T07:11:10;3.00;99.90
17687;DHT22;8962;52.538;13.266;2022-12-08T07:13:37;3.10;99.90
17687;DHT22;8962;52.538;13.266;2022-12-08T07:16:07;3.00;99.90
17687;DHT22;8962;52.538;13.266;2022-12-08T07:18:35;3.00;99.90
17687;DHT22;8962;52.538;13.266;2022-12-08T07:21:03;3.10;99.90
17687;DHT22;8962;52.538;13.266;2022-12-08T07:23:33;3.20;99.90
17687;DHT22;8962;52.538;13.266;2022-12-08T07:26:01;3.20;99.90
17687;DHT22;8962;52.538;13.266;2022-12-08T07:28:30;3.20;99.90
17687;DHT22;8962;52.538;13.266;2022-12-08T07:30:57;3.20;99.90
17687;DHT22;8962;52.538;13.266;2022-12-08T07:33:26;3.30;99.90
17687;DHT22;8962;52.538;13.266;2022-12-08T07:35:54;3.30;99.90
17687;DHT22;8962;52.538;13.266;2022-12-08T07:38:22;3.30;99.90
17687;DHT22;8962;52.538;13.266;2022-12-08T07:40:51;3.30;99.90
17687;DHT22;8962;52.538;13.266;2022-12-08T07:43:19;3.30;99.90
17687;DHT22;8962;52.538;13.266;2022-12-08T07:45:47;3.30;99.90
17687;DHT22;8962;52.538;13.266;2022-12-08T07:48:15;3.30;99.90
17687;DHT22;8962;52.538;13.266;2022-12-08T07:50:44;3.30;99.90
17687;DHT22;8962;52.538;13.266;2022-12-08T07:53:13;3.30;99.90
17687;DHT22;8962;52.538;13.266;2022-12-08T07:55:43;3.30;99.90
17687;DHT22;8962;52.538;13.266;2022-12-08T07:58:10;3.40;99.90
17687;DHT22;8962;52.538;13.266;2022-12-08T08:00:37;3.40;99.90
17687;DHT22;8962;52.538;13.266;2022-12-08T08:03:05;3.40;99.90
17687;DHT22;8962;52.538;13.266;2022-12-08T08:05:33;3.50;99.90
17687;DHT22;8962;52.538;13.266;2022-12-08T08:08:02;3.40;99.90
17687;DHT22;8962;52.538;13.266;2022-12-08T08:10:29;3.40;99.90
17687;DHT22;8962;52.538;13.266;2022-12-08T08:12:57;3.50;99.90
17687;DHT22;8962;52.538;13.266;2022-12-08T08:15:25;3.50;99.90
17687;DHT22;8962;52.538;13.266;2022-12-08T08:17:52;3.50;99.90
17687;DHT22;8962;52.538;13.266;2022-12-08T08:20:20;3.50;99.90
17687;DHT22;8962;52.538;13.266;2022-12-08T08:22:49;3.50;99.90
17687;DHT22;8962;52.538;13.266;2022-12-08T08:25:19;3.50;99.90
17687;DHT22;8962;52.538;13.266;2022-12-08T08:27:48;3.50;99.90
17687;DHT22;8962;52.538;13.266;2022-12-08T08:30:18;3.70;99.90
17687;DHT22;8962;52.538;13.266;2022-12-08T08:32:47;3.60;99.90
17687;DHT22;8962;52.538;13.266;2022-12-08T08:35:14;3.60;99.90
17687;DHT22;8962;52.538;13.266;2022-12-08T08:37:41;3.70;99.90
17687;DHT22;8962;52.538;13.266;2022-12-08T08:40:09;3.60;99.90
17687;DHT22;8962;52.538;13.266;2022-12-08T08:42:38;3.70;99.90
17687;DHT22;8962;52.538;13.266;2022-12-08T08:45:06;3.70;99.90
17687;DHT22;8962;52.538;13.266;2022-12-08T08:47:33;3.70;99.90
17687;DHT22;8962;52.538;13.266;2022-12-08T08:50:01;3.70;99.90
17687;DHT22;8962;52.538;13.266;2022-12-08T08:52:28;3.70;99.90
17687;DHT22;8962;52.538;13.266;2022-12-08T08:54:55;3.70;99.90
17687;DHT22;8962;52.538;13.266;2022-12-08T08:57:23;3.80;99.90
17687;DHT22;8962;52.538;13.266;2022-12-08T08:59:55;3.80;99.90
17687;DHT22;8962;52.538;13.266;2022-12-08T09:02:22;3.80;99.90
17687;DHT22;8962;52.538;13.266;2022-12-08T09:04:50;3.90;99.90
17687;DHT22;8962;52.538;13.266;2022-12-08T09:07:17;4.00;99.90
17687;DHT22;8962;52.538;13.266;2022-12-08T09:09:46;4.00;99.90
17687;DHT22;8962;52.538;13.266;2022-12-08T09:12:13;4.00;99.90
17687;DHT22;8962;52.538;13.266;2022-12-08T09:14:40;4.00;99.90
17687;DHT22;8962;52.538;13.266;2022-12-08T09:17:09;4.10;99.90
17687;DHT22;8962;52.538;13.266;2022-12-08T09:19:37;4.10;99.90
17687;DHT22;8962;52.538;13.266;2022-12-08T09:22:04;4.00;99.90
17687;DHT22;8962;52.538;13.266;2022-12-08T09:24:33;4.00;99.90
17687;DHT22;8962;52.538;13.266;2022-12-08T09:27:00;4.10;99.90
17687;DHT22;8962;52.538;13.266;2022-12-08T09:29:29;4.10;99.90
17687;DHT22;8962;52.538;13.266;2022-12-08T09:31:58;4.10;99.90
17687;DHT22;8962;52.538;13.266;2022-12-08T09:34:27;4.00;99.90
17687;DHT22;8962;52.538;13.266;2022-12-08T09:36:54;4.00;99.90
17687;DHT22;8962;52.538;13.266;2022-12-08T09:39:21;4.00;99.90
17687;DHT22;8962;52.538;13.266;2022-12-08T09:41:51;4.00;99.90
17687;DHT22;8962;52.538;13.266;2022-12-08T09:44:39;4.00;99.90
17687;DHT22;8962;52.538;13.266;2022-12-08T09:47:15;4.10;99.90
17687;DHT22;8962;52.538;13.266;2022-12-08T09:49:51;4.10;99.90
17687;DHT22;8962;52.538;13.266;2022-12-08T09:52:23;4.10;99.90
17687;DHT22;8962;52.538;13.266;2022-12-08T09:54:50;4.10;99.90
17687;DHT22;8962;52.538;13.266;2022-12-08T09:57:21;4.20;99.90
17687;DHT22;8962;52.538;13.266;2022-12-08T09:59:53;4.20;99.90
17687;DHT22;8962;52.538;13.266;2022-12-08T10:02:23;4.10;99.90
17687;DHT22;8962;52.538;13.266;2022-12-08T10:04:54;4.10;99.90
17687;DHT22;8962;52.538;13.266;2022-12-08T10:07:29;4.00;99.90
17687;DHT22;8962;52.538;13.266;2022-12-08T10:10:06;4.00;99.90
17687;DHT22;8962;52.538;13.266;2022-12-08T10:12:42;4.00;99.90
17687;DHT22;8962;52.538;13.266;2022-12-08T10:15:29;4.00;99.90
17687;DHT22;8962;52.538;13.266;2022-12-08T10:18:03;4.10;99.90
17687;DHT22;8962;52.538;13.266;2022-12-08T10:20:38;4.10;99.90
17687;DHT22;8962;52.538;13.266;2022-12-08T10:23:08;4.20;99.90
17687;DHT22;8962;52.538;13.266;2022-12-08T10:25:43;4.40;99.90
17687;DHT22;8962;52.538;13.266;2022-12-08T10:28:12;4.50;99.90
17687;DHT22;8962;52.538;13.266;2022-12-08T10:30:41;4.40;99.90
17687;DHT22;8962;52.538;13.266;2022-12-08T10:33:13;4.40;99.90
17687;DHT22;8962;52.538;13.266;2022-12-08T10:35:44;4.50;99.90
17687;DHT22;8962;52.538;13.266;2022-12-08T10:38:17;4.50;99.90
17687;DHT22;8962;52.538;13.266;2022-12-08T10:40:50;4.60;99.90
17687;DHT22;8962;52.538;13.266;2022-12-08T10:43:21;4.60;99.90
17687;DHT22;8962;52.538;13.266;2022-12-08T10:45:50;4.60;99.90
17687;DHT22;8962;52.538;13.266;2022-12-08T10:48:18;4.60;99.90
17687;DHT22;8962;52.538;13.266;2022-12-08T10:50:54;4.60;99.90
17687;DHT22;8962;52.538;13.266;2022-12-08T10:53:25;4.60;99.90
17687;DHT22;8962;52.538;13.266;2022-12-08T10:56:05;4.50;99.90
17687;DHT22;8962;52.538;13.266;2022-12-08T10:58:34;4.50;99.90
17687;DHT22;8962;52.538;13.266;2022-12-08T11:01:05;4.50;99.90
17687;DHT22;8962;52.538;13.266;2022-12-08T11:03:35;4.50;99.90
17687;DHT22;8962;52.538;13.266;2022-12-08T11:06:14;4.50;99.90
17687;DHT22;8962;52.538;13.266;2022-12-08T11:08:48;4.40;99.90
17687;DHT22;8962;52.538;13.266;2022-12-08T11:11:16;4.30;99.90
17687;DHT22;8962;52.538;13.266;2022-12-08T11:13:47;4.30;99.90
17687;DHT22;8962;52.538;13.266;2022-12-08T11:16:18;4.20;99.90
17687;DHT22;8962;52.538;13.266;2022-12-08T11:18:53;4.10;99.90
17687;DHT22;8962;52.538;13.266;2022-12-08T11:21:33;3.90;99.90
17687;DHT22;8962;52.538;13.266;2022-12-08T11:24:21;3.80;99.90
17687;DHT22;8962;52.538;13.266;2022-12-08T11:26:52;3.60;99.90
17687;DHT22;8962;52.538;13.266;2022-12-08T11:29:19;3.60;99.90
17687;DHT22;8962;52.538;13.266;2022-12-08T11:31:52;3.60;99.90
17687;DHT22;8962;52.538;13.266;2022-12-08T11:34:29;3.60;99.90
17687;DHT22;8962;52.538;13.266;2022-12-08T11:36:58;3.60;99.90
17687;DHT22;8962;52.538;13.266;2022-12-08T11:39:28;3.60;99.90
17687;DHT22;8962;52.538;13.266;2022-12-08T11:42:01;3.60;99.90
17687;DHT22;8962;52.538;13.266;2022-12-08T11:44:32;3.60;99.90
17687;DHT22;8962;52.538;13.266;2022-12-08T11:47:06;3.70;99.90
17687;DHT22;8962;52.538;13.266;2022-12-08T11:49:38;3.70;99.90
17687;DHT22;8962;52.538;13.266;2022-12-08T11:52:15;3.70;99.90
17687;DHT22;8962;52.538;13.266;2022-12-08T11:54:49;3.70;99.90
17687;DHT22;8962;52.538;13.266;2022-12-08T11:57:16;3.80;99.90
17687;DHT22;8962;52.538;13.266;2022-12-08T11:59:49;3.80;99.90
17687;DHT22;8962;52.538;13.266;2022-12-08T12:02:22;3.80;99.90
17687;DHT22;8962;52.538;13.266;2022-12-08T12:04:52;3.80;99.90
17687;DHT22;8962;52.538;13.266;2022-12-08T12:07:44;3.90;99.90
17687;DHT22;8962;52.538;13.266;2022-12-08T12:13:22;3.90;99.90
17687;DHT22;8962;52.538;13.266;2022-12-08T12:16:31;3.90;99.90
17687;DHT22;8962;52.538;13.266;2022-12-08T12:19:07;3.80;99.90
17687;DHT22;8962;52.538;13.266;2022-12-08T12:21:40;3.90;99.90
17687;DHT22;8962;52.538;13.266;2022-12-08T12:24:15;4.00;99.90
17687;DHT22;8962;52.538;13.266;2022-12-08T12:26:54;4.00;99.90
17687;DHT22;8962;52.538;13.266;2022-12-08T12:29:26;4.10;99.90
17687;DHT22;8962;52.538;13.266;2022-12-08T12:31:55;4.00;99.90
17687;DHT22;8962;52.538;13.266;2022-12-08T12:34:26;4.20;99.90
17687;DHT22;8962;52.538;13.266;2022-12-08T12:36:58;4.10;99.90
17687;DHT22;8962;52.538;13.266;2022-12-08T12:39:34;4.10;99.90
17687;DHT22;8962;52.538;13.266;2022-12-08T12:42:35;4.10;99.90
17687;DHT22;8962;52.538;13.266;2022-12-08T12:45:25;4.30;99.90
17687;DHT22;8962;52.538;13.266;2022-12-08T12:48:15;4.30;99.90
17687;DHT22;8962;52.538;13.266;2022-12-08T12:50:46;4.40;99.90
17687;DHT22;8962;52.538;13.266;2022-12-08T12:53:46;4.40;99.90
17687;DHT22;8962;52.538;13.266;2022-12-08T12:56:50;4.40;99.90
17687;DHT22;8962;52.538;13.266;2022-12-08T12:59:41;4.30;99.90
17687;DHT22;8962;52.538;13.266;2022-12-08T13:02:18;4.30;99.90
17687;DHT22;8962;52.538;13.266;2022-12-08T13:04:58;4.20;99.90
17687;DHT22;8962;52.538;13.266;2022-12-08T13:07:28;4.20;99.90
17687;DHT22;8962;52.538;13.266;2022-12-08T13:09:59;4.10;99.90
17687;DHT22;8962;52.538;13.266;2022-12-08T13:12:31;4.00;99.90
17687;DHT22;8962;52.538;13.266;2022-12-08T13:15:03;4.00;99.90
17687;DHT22;8962;52.538;13.266;2022-12-08T13:17:32;3.90;99.90
17687;DHT22;8962;52.538;13.266;2022-12-08T13:20:02;3.80;99.90
17687;DHT22;8962;52.538;13.266;2022-12-08T13:25:50;3.80;99.90
17687;DHT22;8962;52.538;13.266;2022-12-08T13:28:25;3.80;99.90
17687;DHT22;8962;52.538;13.266;2022-12-08T13:30:57;3.80;99.90
17687;DHT22;8962;52.538;13.266;2022-12-08T13:33:28;3.80;99.90
17687;DHT22;8962;52.538;13.266;2022-12-08T13:36:06;3.90;99.90
17687;DHT22;8962;52.538;13.266;2022-12-08T13:38:38;3.90;99.90
17687;DHT22;8962;52.538;13.266;2022-12-08T13:41:12;3.90;99.90
17687;DHT22;8962;52.538;13.266;2022-12-08T13:43:44;4.00;99.90
17687;DHT22;8962;52.538;13.266;2022-12-08T13:46:16;4.00;99.90
17687;DHT22;8962;52.538;13.266;2022-12-08T13:48:49;3.90;99.90
17687;DHT22;8962;52.538;13.266;2022-12-08T13:51:21;3.90;99.90
17687;DHT22;8962;52.538;13.266;2022-12-08T13:53:58;3.80;99.90
17687;DHT22;8962;52.538;13.266;2022-12-08T13:56:28;3.80;99.90
17687;DHT22;8962;52.538;13.266;2022-12-08T13:59:24;3.90;99.90
17687;DHT22;8962;52.538;13.266;2022-12-08T14:01:54;3.90;99.90
17687;DHT22;8962;52.538;13.266;2022-12-08T14:04:23;3.90;99.90
17687;DHT22;8962;52.538;13.266;2022-12-08T14:06:52;3.90;99.90
17687;DHT22;8962;52.538;13.266;2022-12-08T14:09:22;3.80;99.90
17687;DHT22;8962;52.538;13.266;2022-12-08T14:11:55;3.80;99.90
17687;DHT22;8962;52.538;13.266;2022-12-08T14:14:30;3.80;99.90
17687;DHT22;8962;52.538;13.266;2022-12-08T14:17:01;3.80;99.90
17687;DHT22;8962;52.538;13.266;2022-12-08T14:19:30;3.80;99.90
17687;DHT22;8962;52.538;13.266;2022-12-08T14:21:59;3.80;99.90
17687;DHT22;8962;52.538;13.266;2022-12-08T14:24:29;3.80;99.90
17687;DHT22;8962;52.538;13.266;2022-12-08T14:27:00;3.80;99.90
17687;DHT22;8962;52.538;13.266;2022-12-08T14:29:39;3.80;99.90
17687;DHT22;8962;52.538;13.266;2022-12-08T14:32:32;3.80;99.90
17687;DHT22;8962;52.538;13.266;2022-12-08T14:35:12;3.80;99.90
17687;DHT22;8962;52.538;13.266;2022-12-08T14:37:45;3.80;99.90
17687;DHT22;8962;52.538;13.266;2022-12-08T14:40:20;3.70;99.90
17687;DHT22;8962;52.538;13.266;2022-12-08T14:42:51;3.70;99.90
17687;DHT22;8962;52.538;13.266;2022-12-08T14:45:20;3.70;99.90
17687;DHT22;8962;52.538;13.266;2022-12-08T14:47:47;3.70;99.90
17687;DHT22;8962;52.538;13.266;2022-12-08T14:50:39;3.70;99.90
17687;DHT22;8962;52.538;13.266;2022-12-08T14:53:13;3.70;99.90
17687;DHT22;8962;52.538;13.266;2022-12-08T14:55:42;3.60;99.90
17687;DHT22;8962;52.538;13.266;2022-12-08T14:58:16;3.70;99.90
17687;DHT22;8962;52.538;13.266;2022-12-08T15:01:05;3.70;99.90
17687;DHT22;8962;52.538;13.266;2022-12-08T15:03:35;3.70;99.90
17687;DHT22;8962;52.538;13.266;2022-12-08T15:06:04;3.70;99.90
17687;DHT22;8962;52.538;13.266;2022-12-08T15:08:36;3.70;99.90
17687;DHT22;8962;52.538;13.266;2022-12-08T15:11:29;3.70;99.90
17687;DHT22;8962;52.538;13.266;2022-12-08T15:13:58;3.60;99.90
17687;DHT22;8962;52.538;13.266;2022-12-08T15:16:29;3.60;99.90
17687;DHT22;8962;52.538;13.266;2022-12-08T15:19:14;3.60;99.90
17687;DHT22;8962;52.538;13.266;2022-12-08T15:21:52;3.60;99.90
17687;DHT22;8962;52.538;13.266;2022-12-08T15:24:22;3.50;99.90
17687;DHT22;8962;52.538;13.266;2022-12-08T15:26:52;3.50;99.90
17687;DHT22;8962;52.538;13.266;2022-12-08T15:29:23;3.50;99.90
17687;DHT22;8962;52.538;13.266;2022-12-08T15:31:56;3.50;99.90
17687;DHT22;8962;52.538;13.266;2022-12-08T15:34:23;3.40;99.90
17687;DHT22;8962;52.538;13.266;2022-12-08T15:36:52;3.40;99.90
17687;DHT22;8962;52.538;13.266;2022-12-08T15:39:24;3.40;99.90
17687;DHT22;8962;52.538;13.266;2022-12-08T15:41:54;3.40;99.90
17687;DHT22;8962;52.538;13.266;2022-12-08T15:44:23;3.40;99.90
17687;DHT22;8962;52.538;13.266;2022-12-08T15:46:52;3.30;99.90
17687;DHT22;8962;52.538;13.266;2022-12-08T15:49:22;3.30;99.90
17687;DHT22;8962;52.538;13.266;2022-12-08T15:51:50;3.30;99.90
17687;DHT22;8962;52.538;13.266;2022-12-08T15:54:17;3.30;99.90
17687;DHT22;8962;52.538;13.266;2022-12-08T15:56:50;3.30;99.90
17687;DHT22;8962;52.538;13.266;2022-12-08T15:59:20;3.30;99.90
17687;DHT22;8962;52.538;13.266;2022-12-08T16:01:48;3.20;99.90
17687;DHT22;8962;52.538;13.266;2022-12-08T16:04:21;3.30;99.90
17687;DHT22;8962;52.538;13.266;2022-12-08T16:06:50;3.30;99.90
17687;DHT22;8962;52.538;13.266;2022-12-08T16:09:20;3.20;99.90
17687;DHT22;8962;52.538;13.266;2022-12-08T16:11:49;3.20;99.90
17687;DHT22;8962;52.538;13.266;2022-12-08T16:14:33;3.10;99.90
17687;DHT22;8962;52.538;13.266;2022-12-08T16:17:00;3.10;99.90